Manzanillo, Cuba
Current Conditions -  °F | °C
As of 9:51 AM on Thursday 23 Oct 2014 (Local Time) from MUHG Reporting Station
Overcast Overcast  
Wind Chill: 79°   Ceiling: 18000
Heat Index: 82°   Visibility: 6mi
Dew Point: 73°   Wind: 5mph
Humidity: 83%   Direction: 150°SSE
Pressure: 29.91"   Gusts: NA
Location:  20.35°N, 77.12°W
Report Text: MUHG 231351Z 15004KT 120V200 9000 SCT025 OVC180 26/23 Q1013
Loading
Personal Weather Stations






























Interactive Weather Map
Tropical Storm Tracking
New forecast layout! Learn more

10-Day Weather Forecast

Advertisements
Track Severe Weather on mobile